TimeEDT,TemperatureF,Dew PointF,Humidity,Sea Level PressureIn,VisibilityMPH,Wind Direction,Wind SpeedMPH,Gust SpeedMPH,PrecipitationIn,Events,Conditions,WindDirDegrees,DateUTC
12:54 AM,66.0,61.0,84,29.96,10.0,SSW,9.2,-,N/A,,Scattered Clouds,200,2013-08-10 04:54:00
1:54 AM,66.0,62.1,87,29.96,10.0,SSW,9.2,-,N/A,,Scattered Clouds,200,2013-08-10 05:54:00
2:47 AM,69.8,64.4,83,29.99,10.0,West,15.0,-,N/A,,Mostly Cloudy,280,2013-08-10 06:47:00
2:54 AM,69.1,62.1,78,29.99,10.0,WNW,12.7,20.7,N/A,,Mostly Cloudy,290,2013-08-10 06:54:00
3:09 AM,68.0,60.8,78,29.99,10.0,West,10.4,-,N/A,,Scattered Clouds,280,2013-08-10 07:09:00
3:54 AM,66.0,59.0,78,29.99,10.0,WNW,9.2,-,N/A,,Mostly Cloudy,300,2013-08-10 07:54:00
4:54 AM,64.0,57.9,80,30.01,10.0,WNW,8.1,-,N/A,,Scattered Clouds,300,2013-08-10 08:54:00
5:54 AM,63.0,57.0,81,30.02,10.0,WNW,5.8,-,N/A,,Mostly Cloudy,290,2013-08-10 09:54:00
6:54 AM,62.1,54.0,75,30.04,10.0,WSW,4.6,-,N/A,,Scattered Clouds,250,2013-08-10 10:54:00
7:54 AM,64.0,50.0,60,30.06,10.0,WNW,5.8,-,N/A,,Mostly Cloudy,290,2013-08-10 11:54:00
8:54 AM,64.9,48.9,56,30.07,10.0,NW,6.9,-,N/A,,Mostly Cloudy,310,2013-08-10 12:54:00
9:54 AM,66.0,48.0,52,30.08,10.0,West,6.9,-,N/A,,Mostly Cloudy,280,2013-08-10 13:54:00
10:54 AM,68.0,50.0,52,30.09,10.0,WNW,9.2,-,N/A,,Mostly Cloudy,290,2013-08-10 14:54:00
11:54 AM,70.0,45.0,41,30.09,10.0,WNW,11.5,-,N/A,,Scattered Clouds,290,2013-08-10 15:54:00
12:54 PM,70.0,46.0,42,30.09,10.0,West,9.2,18.4,N/A,,Scattered Clouds,260,2013-08-10 16:54:00
1:54 PM,72.0,48.9,44,30.09,10.0,West,12.7,-,N/A,,Scattered Clouds,280,2013-08-10 17:54:00
2:54 PM,72.0,51.1,48,30.08,10.0,WNW,10.4,-,N/A,,Scattered Clouds,290,2013-08-10 18:54:00
3:54 PM,70.0,55.0,59,30.08,10.0,WSW,9.2,-,N/A,,Mostly Cloudy,250,2013-08-10 19:54:00
4:54 PM,70.0,55.0,59,30.09,10.0,SW,10.4,-,N/A,,Mostly Cloudy,230,2013-08-10 20:54:00
5:54 PM,72.0,57.0,59,30.08,10.0,WSW,9.2,-,N/A,,Mostly Cloudy,240,2013-08-10 21:54:00
6:54 PM,70.0,55.9,61,30.07,10.0,West,9.2,-,N/A,,Mostly Cloudy,260,2013-08-10 22:54:00
7:54 PM,69.1,57.0,65,30.07,10.0,West,9.2,-,N/A,,Mostly Cloudy,260,2013-08-10 23:54:00
8:54 PM,69.1,59.0,70,30.08,10.0,West,8.1,-,N/A,,Mostly Cloudy,260,2013-08-11 00:54:00
9:54 PM,66.0,59.0,78,30.09,10.0,NW,3.5,-,N/A,,Scattered Clouds,310,2013-08-11 01:54:00
10:54 PM,66.0,59.0,78,30.09,10.0,WNW,3.5,-,N/A,,Partly Cloudy,290,2013-08-11 02:54:00
11:54 PM,64.0,59.0,84,30.09,10.0,Calm,Calm,-,N/A,,Clear,0,2013-08-11 03:54:00